Time;durP1;ratioP1;P1;durP2;ratioP2;P2;SDS_P1;SDS_P2;PMS_P1;PMS_P2;Temp;Humidity;BMP_temperature;BMP_pressure;BME280_temperature;BME280_humidity;BME280_pressure;Samples;Min_cycle;Max_cycle;Signal;HPM_P1;HPM_P2
2022/12/30 00:00:21;;;;;;;5.43;1.87;;;;;;;7.43;76.64;99325.78;5062697;28;20316;-92
2022/12/30 00:02:46;;;;;;;9.90;3.08;;;;;;;7.33;76.82;99339.22;5064026;28;20245;-89
2022/12/30 00:05:12;;;;;;;16.15;2.08;;;;;;;7.30;76.63;99339.75;5061598;28;20099;-91
2022/12/30 00:07:37;;;;;;;12.30;4.17;;;;;;;7.24;77.27;99347.00;5059739;28;20025;-91
2022/12/30 00:10:03;;;;;;;15.30;3.53;;;;;;;7.27;77.21;99337.53;5060830;28;20284;-91
2022/12/30 00:35:13;;;;;;;6.45;1.85;;;;;;;7.35;76.73;99359.59;5061133;28;20040;-92
2022/12/30 00:37:39;;;;;;;10.35;2.58;;;;;;;7.25;76.99;99362.19;5060038;28;20086;-92
2022/12/30 00:40:05;;;;;;;10.50;3.13;;;;;;;7.29;77.03;99352.47;5060165;28;20282;-93
2022/12/30 00:45:14;;;;;;;6.78;1.77;;;;;;;7.18;77.21;99364.28;5061401;28;20040;-92
2022/12/30 00:47:40;;;;;;;11.87;1.80;;;;;;;7.06;77.31;99361.69;5060484;28;20028;-92
2022/12/30 00:58:17;;;;;;;12.85;2.80;;;;;;;7.05;77.49;99360.88;5062416;28;20031;-92
2022/12/30 01:00:42;;;;;;;12.43;2.30;;;;;;;7.10;77.33;99373.66;5060963;28;20045;-92
2022/12/30 01:03:08;;;;;;;20.13;2.92;;;;;;;7.08;77.17;99371.19;5060936;28;20262;-91
2022/12/30 01:05:36;;;;;;;9.67;1.97;;;;;;;7.08;77.46;99383.94;5061670;28;20511;-92
2022/12/30 01:08:02;;;;;;;7.55;1.45;;;;;;;7.14;77.32;99379.41;5057944;28;20360;-92
2022/12/30 01:10:27;;;;;;;11.60;4.32;;;;;;;7.18;77.12;99378.66;5059843;28;20151;-92
2022/12/30 01:12:52;;;;;;;12.80;2.97;;;;;;;7.15;77.22;99386.47;5059495;28;20634;-92
2022/12/30 01:15:17;;;;;;;4.07;1.90;;;;;;;7.20;77.12;99394.69;5059626;28;20293;-91
2022/12/30 01:17:43;;;;;;;9.02;2.25;;;;;;;7.19;77.09;99388.44;5060687;28;20277;-92
2022/12/30 01:20:08;;;;;;;15.03;4.07;;;;;;;7.25;77.10;99389.31;5041723;28;20048;-92
2022/12/30 01:22:34;;;;;;;11.85;3.05;;;;;;;7.27;76.70;99392.59;5057714;28;20875;-92
2022/12/30 01:24:59;;;;;;;6.77;2.17;;;;;;;7.21;77.36;99393.59;5060736;28;20036;-93
2022/12/30 01:27:24;;;;;;;11.57;1.90;;;;;;;7.15;77.16;99392.72;5061228;28;20385;-93
2022/12/30 01:29:50;;;;;;;6.80;1.98;;;;;;;7.14;77.36;99379.41;5061731;28;20300;-93
2022/12/30 01:32:18;;;;;;;11.77;1.98;;;;;;;7.12;77.23;99383.19;5060204;28;20544;-93
2022/12/30 01:34:44;;;;;;;6.75;2.70;;;;;;;7.03;77.49;99394.72;5058996;28;20040;-93
2022/12/30 01:37:09;;;;;;;6.05;1.52;;;;;;;7.02;77.25;99402.03;5058409;28;20036;-93
2022/12/30 01:39:35;;;;;;;16.42;2.58;;;;;;;7.11;77.85;99397.81;5059930;28;20030;-93
2022/12/30 01:42:02;;;;;;;6.68;2.40;;;;;;;7.11;77.46;99395.13;5040788;28;20050;-93
2022/12/30 01:44:49;;;;;;;9.38;2.85;;;;;;;7.14;77.46;99411.94;5041762;28;20458;-92
2022/12/30 01:47:22;;;;;;;10.25;1.92;;;;;;;7.05;77.48;99404.25;5059014;28;20033;-91
2022/12/30 01:49:51;;;;;;;16.52;2.25;;;;;;;7.07;77.33;99402.09;5057124;28;20474;-91
2022/12/30 01:52:23;;;;;;;8.80;2.05;;;;;;;7.01;77.60;99405.81;5056647;28;20345;-91
2022/12/30 01:54:49;;;;;;;14.82;2.67;;;;;;;6.96;77.46;99406.56;5056657;28;20058;-92
2022/12/30 01:57:16;;;;;;;10.48;2.28;;;;;;;6.99;78.02;99394.41;5058916;28;20060;-91
2022/12/30 01:59:43;;;;;;;7.35;2.38;;;;;;;7.12;77.40;99409.47;5058992;28;20029;-92
2022/12/30 02:02:08;;;;;;;12.25;3.13;;;;;;;7.05;77.29;99415.09;5061553;28;20055;-91
2022/12/30 02:04:34;;;;;;;9.43;2.42;;;;;;;7.15;77.20;99413.56;5057240;28;20020;-91
2022/12/30 02:07:25;;;;;;;21.58;2.45;;;;;;;7.19;76.76;99414.72;5058222;28;20417;-92
2022/12/30 02:09:51;;;;;;;7.38;2.35;;;;;;;7.10;76.95;99422.44;5053095;28;20079;-91
2022/12/30 02:12:16;;;;;;;6.63;1.80;;;;;;;7.14;76.73;99415.47;5056323;28;20407;-91
2022/12/30 02:14:43;;;;;;;10.27;2.25;;;;;;;7.26;76.33;99409.91;5059951;28;20399;-91
2022/12/30 02:17:36;;;;;;;7.22;1.80;;;;;;;7.29;76.26;99416.75;5057582;28;20041;-93
2022/12/30 02:20:23;;;;;;;5.78;1.52;;;;;;;7.20;76.79;99421.78;5059097;28;20403;-93
2022/12/30 02:23:11;;;;;;;6.93;1.83;;;;;;;7.18;76.39;99402.25;5057040;28;20480;-93
2022/12/30 02:25:57;;;;;;;7.55;2.40;;;;;;;7.25;76.58;99408.28;5039985;28;20024;-93
2022/12/30 02:28:48;;;;;;;9.50;2.45;;;;;;;7.31;76.47;99417.31;5058922;28;20032;-93
2022/12/30 02:31:15;;;;;;;16.95;4.85;;;;;;;7.26;76.41;99409.91;5059122;28;20032;-92
2022/12/30 02:34:00;;;;;;;10.18;1.92;;;;;;;7.11;76.73;99419.50;5057899;28;20040;-92
2022/12/30 02:36:38;;;;;;;6.43;2.17;;;;;;;6.96;77.31;99408.44;5057749;28;20084;-93
2022/12/30 02:39:32;;;;;;;18.52;2.67;;;;;;;7.10;76.63;99422.44;5058594;28;20119;-92
2022/12/30 02:44:51;;;;;;;13.77;5.50;;;;;;;7.19;76.91;99420.13;5059111;28;20424;-92
2022/12/30 02:47:33;;;;;;;9.82;2.15;;;;;;;7.25;76.29;99419.13;5057282;28;20089;-91
2022/12/30 02:52:50;;;;;;;7.03;1.90;;;;;;;7.18;76.44;99426.66;5060311;28;20264;-92
2022/12/30 02:55:16;;;;;;;5.03;1.30;;;;;;;7.20;76.35;99421.78;5056087;28;20048;-92
2022/12/30 02:57:42;;;;;;;12.35;2.67;;;;;;;7.21;76.28;99423.41;5057365;28;20124;-92
2022/12/30 03:06:31;;;;;;;12.80;1.88;;;;;;;7.08;76.84;99425.41;5056241;28;20064;-92
2022/12/30 03:09:20;;;;;;;12.90;2.28;;;;;;;7.03;77.09;99413.69;5059319;28;20067;-92
2022/12/30 03:12:09;;;;;;;7.05;1.75;;;;;;;7.03;76.55;99416.41;5058662;28;20124;-92
2022/12/30 03:14:47;;;;;;;15.18;3.83;;;;;;;7.05;77.21;99414.25;5057609;28;20089;-93
2022/12/30 03:17:19;;;;;;;8.70;2.05;;;;;;;7.02;77.15;99407.44;5059072;28;20032;-92
2022/12/30 03:19:49;;;;;;;5.93;1.88;;;;;;;6.93;76.94;99406.25;5060927;28;20029;-92
2022/12/30 03:27:49;;;;;;;5.47;2.13;;;;;;;6.81;77.52;99403.63;5062106;28;20363;-91
2022/12/30 03:30:16;;;;;;;11.43;3.03;;;;;;;6.88;77.66;99404.25;5061338;28;20135;-91
2022/12/30 03:32:42;;;;;;;5.43;2.00;;;;;;;6.81;77.27;99398.22;5060224;28;20021;-91
2022/12/30 03:35:08;;;;;;;7.85;1.80;;;;;;;6.78;77.93;99399.53;5061622;28;20106;-91
2022/12/30 03:37:47;;;;;;;8.95;2.35;;;;;;;6.81;77.62;99409.06;5061502;28;20074;-92
2022/12/30 03:40:18;;;;;;;12.65;2.33;;;;;;;6.67;78.21;99395.84;5062869;28;20025;-92
2022/12/30 03:42:47;;;;;;;15.38;3.10;;;;;;;6.81;77.78;99400.91;5061715;28;20064;-92
2022/12/30 03:45:13;;;;;;;7.50;2.10;;;;;;;6.72;77.87;99390.50;5061977;28;20055;-92
2022/12/30 03:47:39;;;;;;;9.65;1.70;;;;;;;6.71;78.09;99404.31;5060061;28;20033;-93
2022/12/30 03:50:05;;;;;;;18.23;4.85;;;;;;;6.74;77.85;99401.91;5061616;28;20025;-92
2022/12/30 03:52:30;;;;;;;8.35;2.75;;;;;;;6.68;78.00;99392.06;5059298;28;20112;-92
2022/12/30 03:54:55;;;;;;;10.70;1.90;;;;;;;6.73;77.77;99385.91;5060468;28;20059;-93
2022/12/30 03:57:21;;;;;;;19.90;5.10;;;;;;;6.81;77.48;99379.25;5060766;28;20123;-93
2022/12/30 03:59:46;;;;;;;8.32;2.70;;;;;;;6.79;77.54;99378.66;5060441;28;20024;-93
2022/12/30 04:02:11;;;;;;;10.38;2.67;;;;;;;6.74;77.40;99380.22;5058778;28;20040;-93
2022/12/30 04:04:36;;;;;;;17.90;3.78;;;;;;;6.69;77.97;99384.75;5060900;28;20024;-92
2022/12/30 04:07:02;;;;;;;13.30;3.58;;;;;;;6.69;77.42;99401.03;5061781;28;20037;-93
2022/12/30 04:09:27;;;;;;;10.65;3.78;;;;;;;6.64;77.67;99389.03;5060907;28;20471;-93
2022/12/30 04:11:52;;;;;;;9.10;1.65;;;;;;;6.64;78.16;99399.88;5060173;28;20111;-95
2022/12/30 04:14:18;;;;;;;7.70;2.38;;;;;;;6.68;78.07;99393.94;5060073;28;20523;-93
2022/12/30 04:16:46;;;;;;;4.40;1.23;;;;;;;6.64;77.87;99388.22;5041579;28;20033;-94
2022/12/30 04:19:12;;;;;;;11.48;2.85;;;;;;;6.63;77.79;99392.78;5061255;28;20446;-92
2022/12/30 04:21:37;;;;;;;8.45;1.83;;;;;;;6.66;77.98;99391.50;5059193;28;20024;-92
2022/12/30 04:24:04;;;;;;;9.45;2.78;;;;;;;6.66;77.65;99386.06;5060830;28;20587;-94
2022/12/30 04:26:29;;;;;;;6.07;2.30;;;;;;;6.58;78.18;99391.91;5065202;28;20063;-93
2022/12/30 04:28:55;;;;;;;10.73;2.85;;;;;;;6.58;78.11;99390.03;5060163;28;20028;-94
2022/12/30 04:31:20;;;;;;;12.88;2.28;;;;;;;6.53;78.28;99392.63;5061144;28;20112;-94
2022/12/30 04:33:50;;;;;;;12.82;2.33;;;;;;;6.53;78.32;99385.34;5061983;28;20028;-94
2022/12/30 04:36:16;;;;;;;9.35;3.97;;;;;;;6.59;78.35;99383.53;5058766;28;20103;-92
2022/12/30 04:38:41;;;;;;;13.38;4.07;;;;;;;6.42;78.88;99397.09;5061824;28;20028;-92
2022/12/30 04:41:07;;;;;;;8.33;3.17;;;;;;;6.47;78.46;99393.66;5061975;28;20125;-93
2022/12/30 04:43:32;;;;;;;7.70;3.38;;;;;;;6.45;78.23;99393.06;5059722;28;20301;-93
2022/12/30 04:45:57;;;;;;;11.03;2.60;;;;;;;6.44;78.71;99394.13;5059521;28;20037;-93
2022/12/30 04:48:23;;;;;;;9.90;1.80;;;;;;;6.28;78.90;99380.34;5059800;28;20683;-92
2022/12/30 04:50:48;;;;;;;10.15;2.65;;;;;;;6.24;79.06;99390.84;5059379;28;20064;-93
2022/12/30 04:53:13;;;;;;;8.85;2.13;;;;;;;6.28;79.53;99385.75;5060575;28;20029;-94
2022/12/30 04:55:39;;;;;;;10.00;3.10;;;;;;;6.25;79.19;99386.22;5058984;28;20067;-93
2022/12/30 04:58:05;;;;;;;17.00;3.25;;;;;;;6.17;80.00;99396.41;5059952;28;20254;-92
2022/12/30 05:00:31;;;;;;;8.32;2.85;;;;;;;6.23;79.59;99393.78;5059544;28;20800;-93
2022/12/30 05:02:57;;;;;;;7.70;2.10;;;;;;;6.25;79.77;99395.19;5061230;28;20024;-93
2022/12/30 05:05:22;;;;;;;9.90;4.75;;;;;;;6.33;79.56;99393.13;5059185;28;20159;-93
2022/12/30 05:07:47;;;;;;;13.07;2.97;;;;;;;6.24;79.64;99395.44;5059349;28;20031;-92
2022/12/30 05:10:12;;;;;;;8.27;2.17;;;;;;;6.23;79.83;99407.31;5060772;28;20044;-93
2022/12/30 05:12:38;;;;;;;6.10;1.70;;;;;;;6.26;79.61;99404.13;5059409;28;20040;-92
2022/12/30 05:15:03;;;;;;;12.00;3.55;;;;;;;6.36;79.62;99392.66;5059588;28;20253;-93
2022/12/30 05:17:29;;;;;;;8.88;2.65;;;;;;;6.27;79.76;99405.75;5057619;28;20386;-93
2022/12/30 05:19:54;;;;;;;9.25;1.92;;;;;;;6.24;80.03;99395.44;5059406;28;20370;-92
2022/12/30 05:22:22;;;;;;;6.40;1.92;;;;;;;6.16;80.32;99397.47;5059175;28;20033;-93
2022/12/30 05:27:31;;;;;;;7.18;2.20;;;;;;;6.21;80.67;99412.97;5059519;28;20079;-91
2022/12/30 05:29:56;;;;;;;8.90;2.27;;;;;;;6.23;80.25;99415.44;5058760;28;20423;-93
2022/12/30 05:32:22;;;;;;;10.25;3.03;;;;;;;6.23;80.20;99413.56;5059826;28;20432;-94
2022/12/30 05:34:47;;;;;;;8.52;1.40;;;;;;;6.19;80.01;99407.00;5058813;28;20447;-93
2022/12/30 05:37:12;;;;;;;21.08;2.45;;;;;;;6.18;80.45;99400.75;5058159;28;20037;-93
2022/12/30 05:39:37;;;;;;;7.93;1.87;;;;;;;6.12;80.51;99409.84;5058662;28;20021;-94
2022/12/30 05:42:03;;;;;;;27.53;2.33;;;;;;;6.11;80.43;99408.22;5059096;28;20747;-93
2022/12/30 05:44:28;;;;;;;9.10;1.85;;;;;;;6.10;80.46;99409.28;5058715;28;20262;-94
2022/12/30 05:46:54;;;;;;;7.15;2.35;;;;;;;6.09;80.06;99404.09;5059694;28;20209;-93
2022/12/30 05:49:19;;;;;;;20.88;3.25;;;;;;;6.07;80.29;99401.66;5039786;28;20382;-93
2022/12/30 05:51:44;;;;;;;9.23;2.13;;;;;;;5.96;80.33;99412.25;5058172;28;20024;-93
2022/12/30 05:54:10;;;;;;;20.93;3.60;;;;;;;5.90;80.96;99415.13;5058060;28;20044;-94
2022/12/30 05:56:35;;;;;;;7.15;2.58;;;;;;;5.92;81.21;99407.59;5060263;28;20644;-93
2022/12/30 05:59:00;;;;;;;9.80;2.43;;;;;;;5.87;80.74;99399.34;5058999;28;20028;-93
2022/12/30 06:01:25;;;;;;;8.48;3.15;;;;;;;5.97;80.45;99407.66;5059028;28;20304;-93
2022/12/30 06:03:55;;;;;;;6.28;1.67;;;;;;;6.07;80.55;99396.22;5061055;28;20029;-93
2022/12/30 06:06:20;;;;;;;8.80;2.03;;;;;;;5.91;80.41;99397.81;5058604;28;20059;-93
2022/12/30 06:08:46;;;;;;;10.32;2.95;;;;;;;5.90;80.88;99399.69;5059116;28;20529;-92
2022/12/30 06:11:11;;;;;;;8.60;3.00;;;;;;;5.86;80.75;99393.13;5060025;28;20077;-92
2022/12/30 06:13:36;;;;;;;12.05;2.47;;;;;;;5.91;80.50;99385.09;5057374;28;20271;-93
2022/12/30 06:16:02;;;;;;;9.15;2.35;;;;;;;5.93;80.78;99391.09;5058420;28;20021;-91
2022/12/30 06:18:27;;;;;;;9.40;3.35;;;;;;;5.98;80.24;99386.84;5059514;28;20032;-93
2022/12/30 06:20:54;;;;;;;6.22;1.63;;;;;;;6.00;80.48;99382.81;5059615;28;20454;-92
2022/12/30 06:23:19;;;;;;;13.52;5.00;;;;;;;6.01;80.17;99389.88;5059620;28;20033;-92
2022/12/30 06:25:44;;;;;;;7.97;2.95;;;;;;;6.05;80.40;99385.63;5058438;28;20086;-92
2022/12/30 06:28:09;;;;;;;5.37;1.67;;;;;;;5.98;80.75;99386.84;5060011;28;20016;-92
2022/12/30 06:30:35;;;;;;;6.13;2.58;;;;;;;5.98;80.64;99376.03;5058850;28;20254;-94
2022/12/30 06:33:01;;;;;;;9.33;3.53;;;;;;;5.90;80.78;99374.53;5058973;28;20631;-94
2022/12/30 06:35:27;;;;;;;9.48;2.67;;;;;;;6.06;80.55;99373.75;5059575;28;20828;-92
2022/12/30 06:37:52;;;;;;;8.50;1.60;;;;;;;6.05;80.42;99373.97;5042066;28;20071;-93
2022/12/30 06:40:17;;;;;;;10.43;2.07;;;;;;;6.01;80.34;99370.09;5057994;28;20526;-92
2022/12/30 06:42:44;;;;;;;7.60;3.65;;;;;;;6.04;80.72;99369.63;5058092;28;20266;-94
2022/12/30 06:45:09;;;;;;;9.88;3.85;;;;;;;5.99;80.31;99358.72;5058464;28;20369;-93
2022/12/30 06:47:34;;;;;;;10.18;2.58;;;;;;;5.94;80.74;99360.25;5055638;28;20043;-94
2022/12/30 06:49:59;;;;;;;6.50;1.80;;;;;;;6.02;80.70;99372.56;5059028;28;20378;-95
2022/12/30 06:52:25;;;;;;;11.18;2.25;;;;;;;6.01;80.35;99359.28;5061046;28;20257;-94
2022/12/30 06:54:50;;;;;;;11.63;2.00;;;;;;;6.05;80.13;99365.84;5061227;28;20064;-94
2022/12/30 06:57:15;;;;;;;8.97;1.43;;;;;;;6.05;80.30;99365.84;5062877;28;20444;-93
2022/12/30 06:59:41;;;;;;;12.23;2.13;;;;;;;5.98;80.56;99354.38;5061450;28;20293;-93
2022/12/30 07:02:06;;;;;;;10.38;2.13;;;;;;;5.94;80.47;99354.84;5063832;28;20265;-93
2022/12/30 07:04:32;;;;;;;7.13;2.55;;;;;;;5.93;80.67;99353.22;5062053;28;20568;-94
2022/12/30 07:06:57;;;;;;;7.93;1.52;;;;;;;6.03;80.05;99354.44;5061120;28;20127;-92
2022/12/30 07:09:22;;;;;;;7.85;2.35;;;;;;;6.01;79.88;99353.88;5062461;28;20052;-91
2022/12/30 07:11:47;;;;;;;6.65;2.50;;;;;;;6.07;79.66;99348.34;5043252;28;20370;-91
2022/12/30 07:14:13;;;;;;;8.60;1.40;;;;;;;6.03;79.74;99357.16;5061347;28;20540;-93
2022/12/30 07:16:38;;;;;;;8.93;2.42;;;;;;;6.01;80.08;99343.03;5061813;28;20250;-91
2022/12/30 07:19:03;;;;;;;5.40;1.60;;;;;;;5.96;80.18;99328.34;5063616;28;20521;-92
2022/12/30 07:21:29;;;;;;;4.07;1.40;;;;;;;5.96;80.14;99336.47;5062617;28;20036;-91
2022/12/30 07:23:54;;;;;;;16.27;2.75;;;;;;;5.96;80.27;99341.88;5061401;28;20024;-91
2022/12/30 07:26:20;;;;;;;10.57;1.63;;;;;;;5.99;80.49;99328.94;5060987;28;20536;-92
2022/12/30 07:28:45;;;;;;;8.32;1.90;;;;;;;6.09;80.00;99329.16;5062028;28;20045;-94
2022/12/30 07:31:10;;;;;;;7.83;1.20;;;;;;;6.06;80.12;99340.47;5062578;28;20044;-90
2022/12/30 07:33:36;;;;;;;6.47;2.38;;;;;;;6.00;80.54;99317.84;5060317;28;20265;-92
2022/12/30 07:36:01;;;;;;;7.60;1.47;;;;;;;6.04;80.72;99326.34;5062391;28;20032;-91
2022/12/30 07:38:26;;;;;;;3.97;1.80;;;;;;;5.99;80.69;99313.53;5063320;28;20289;-92
2022/12/30 07:40:52;;;;;;;5.93;1.58;;;;;;;6.03;80.49;99311.16;5060956;28;20070;-91
2022/12/30 07:43:17;;;;;;;6.47;2.40;;;;;;;6.00;80.44;99317.84;5061149;28;20070;-92
2022/12/30 07:45:42;;;;;;;7.70;2.00;;;;;;;5.98;81.33;99321.91;5060990;28;20470;-90
2022/12/30 07:48:07;;;;;;;8.97;1.70;;;;;;;6.01;80.94;99326.81;5059979;28;20269;-91
2022/12/30 07:50:33;;;;;;;9.33;1.80;;;;;;;5.96;81.31;99324.81;5060541;28;20270;-91
2022/12/30 07:52:59;;;;;;;8.35;1.95;;;;;;;6.01;80.85;99333.06;5061352;28;20284;-90
2022/12/30 07:55:24;;;;;;;6.28;1.27;;;;;;;6.00;80.92;99338.72;5060929;28;20052;-93
2022/12/30 07:57:49;;;;;;;8.77;1.83;;;;;;;6.04;81.16;99331.75;5067785;28;20112;-91
2022/12/30 08:00:16;;;;;;;4.88;1.50;;;;;;;6.02;81.18;99328.47;5061441;28;20269;-92
2022/12/30 08:02:42;;;;;;;7.22;1.48;;;;;;;6.03;81.73;99313.84;5058930;28;20106;-92
2022/12/30 08:05:08;;;;;;;6.13;1.30;;;;;;;6.01;81.50;99310.56;5061359;28;20059;-90
2022/12/30 08:07:35;;;;;;;6.68;1.70;;;;;;;6.07;81.10;99294.22;5060179;28;20100;-89
2022/12/30 08:10:00;;;;;;;6.75;2.35;;;;;;;6.10;80.98;99300.19;5062404;28;20409;-89
2022/12/30 08:12:26;;;;;;;7.25;1.30;;;;;;;6.10;81.16;99301.03;5063610;28;20029;-93
2022/12/30 08:14:51;;;;;;;5.93;1.10;;;;;;;6.18;81.31;99292.47;5061304;28;20017;-88
2022/12/30 08:17:16;;;;;;;8.43;1.77;;;;;;;6.17;81.06;99300.84;5058676;28;20036;-85
2022/12/30 08:19:41;;;;;;;6.07;1.60;;;;;;;6.22;80.81;99283.88;5060848;28;20301;-91
2022/12/30 08:22:07;;;;;;;3.17;1.33;;;;;;;6.20;80.81;99297.66;5062228;28;20031;-91
2022/12/30 08:24:32;;;;;;;18.13;2.28;;;;;;;6.21;80.98;99293.88;5061289;28;20254;-90
2022/12/30 08:26:57;;;;;;;8.20;1.40;;;;;;;6.27;81.04;99278.50;5067860;28;20125;-91
2022/12/30 08:29:23;;;;;;;3.53;1.08;;;;;;;6.32;80.47;99267.78;5060279;28;20261;-89
2022/12/30 08:31:49;;;;;;;3.88;0.93;;;;;;;6.31;80.64;99260.72;5068235;28;20037;-89
2022/12/30 08:34:19;;;;;;;5.35;1.25;;;;;;;6.37;80.53;99269.72;5059999;28;20028;-88
2022/12/30 08:36:45;;;;;;;7.10;0.95;;;;;;;6.38;80.73;99261.38;5059165;28;20031;-91
2022/12/30 08:39:11;;;;;;;6.13;1.50;;;;;;;6.44;80.33;99258.72;5058377;28;20082;-92
2022/12/30 08:41:40;;;;;;;3.42;1.27;;;;;;;6.43;80.14;99255.19;5059458;28;20036;-89
2022/12/30 08:44:06;;;;;;;5.57;1.40;;;;;;;6.50;79.92;99255.84;5059686;28;20044;-92
2022/12/30 08:46:33;;;;;;;5.47;1.63;;;;;;;6.55;79.95;99257.78;5061523;28;20035;-90
2022/12/30 08:48:59;;;;;;;6.85;1.20;;;;;;;6.58;79.79;99251.88;5058631;28;20032;-91
2022/12/30 08:51:25;;;;;;;3.78;1.83;;;;;;;6.57;80.10;99246.72;5061211;28;20032;-90
2022/12/30 08:53:51;;;;;;;7.38;1.05;;;;;;;6.58;79.92;99246.47;5060454;28;20043;-88
2022/12/30 08:56:22;;;;;;;4.13;1.30;;;;;;;6.63;79.89;99235.69;5057069;28;20128;-90
2022/12/30 08:58:48;;;;;;;6.80;1.30;;;;;;;6.66;79.93;99234.34;5059267;28;20116;-92
2022/12/30 09:01:16;;;;;;;13.95;2.38;;;;;;;6.69;79.38;99230.34;5061374;28;20127;-87
2022/12/30 09:03:42;;;;;;;5.03;1.50;;;;;;;6.68;79.88;99237.63;5061242;28;20051;-91
2022/12/30 09:06:10;;;;;;;2.83;1.20;;;;;;;6.72;79.61;99227.13;5058941;28;20119;-91
2022/12/30 09:08:36;;;;;;;10.32;2.78;;;;;;;6.74;79.57;99231.22;5058779;28;20364;-91
2022/12/30 09:11:04;;;;;;;8.35;2.67;;;;;;;6.72;79.79;99211.69;5060258;28;20111;-92
2022/12/30 09:13:30;;;;;;;3.72;1.80;;;;;;;6.71;79.71;99228.19;5060425;28;20037;-90
2022/12/30 09:15:56;;;;;;;7.72;1.38;;;;;;;6.70;80.06;99200.28;5057803;28;20028;-92
2022/12/30 09:18:22;;;;;;;5.60;1.27;;;;;;;6.78;79.74;99209.84;5058981;28;20033;-92
2022/12/30 09:20:47;;;;;;;8.57;1.35;;;;;;;6.85;79.35;99207.78;5058860;28;20033;-91
2022/12/30 09:23:13;;;;;;;3.42;1.20;;;;;;;6.88;79.04;99204.56;5059796;28;20028;-91
2022/12/30 09:25:38;;;;;;;2.33;0.88;;;;;;;6.87;78.91;99202.09;5059461;28;20033;-91
2022/12/30 09:28:04;;;;;;;6.57;1.00;;;;;;;6.94;79.17;99208.13;5054735;28;20032;-91
2022/12/30 09:30:29;;;;;;;7.10;1.70;;;;;;;7.03;78.92;99200.38;5059543;28;20024;-91
2022/12/30 09:32:54;;;;;;;4.40;1.35;;;;;;;7.02;78.60;99187.88;5058681;28;20025;-92
2022/12/30 09:35:19;;;;;;;6.53;1.77;;;;;;;7.07;78.80;99193.38;5060396;28;20357;-93
2022/12/30 09:37:45;;;;;;;8.37;2.13;;;;;;;7.18;78.64;99199.69;5057630;28;20300;-92
2022/12/30 09:40:16;;;;;;;5.78;1.40;;;;;;;7.22;78.39;99197.31;5060802;28;20789;-92
2022/12/30 09:45:52;;;;;;;5.45;1.15;;;;;;;7.21;78.59;99182.09;5056515;28;20105;-91
2022/12/30 09:48:23;;;;;;;6.57;1.30;;;;;;;7.24;78.19;99174.28;5059270;28;20036;-92
2022/12/30 09:50:54;;;;;;;6.22;1.83;;;;;;;7.33;78.16;99166.50;5058918;28;20484;-93
2022/12/30 09:53:34;;;;;;;7.80;1.33;;;;;;;7.30;77.85;99168.91;5058760;28;20029;-92
2022/12/30 09:56:23;;;;;;;2.47;1.05;;;;;;;7.33;77.76;99171.91;5058674;28;20436;-90
2022/12/30 09:58:49;;;;;;;3.63;1.30;;;;;;;7.27;78.19;99156.69;5055509;28;20029;-91
2022/12/30 10:01:34;;;;;;;7.65;2.08;;;;;;;7.34;78.00;99151.84;5058424;28;20033;-89
2022/12/30 10:04:00;;;;;;;7.00;1.63;;;;;;;7.44;77.90;99147.59;5058119;28;20064;-89
2022/12/30 10:06:32;;;;;;;17.77;1.95;;;;;;;7.42;78.20;99130.78;5058131;28;20636;-88
2022/12/30 10:09:31;;;;;;;6.10;1.30;;;;;;;7.46;77.68;99129.16;5059136;28;20424;-91
2022/12/30 10:12:08;;;;;;;3.92;1.73;;;;;;;7.53;77.51;99112.66;5059804;28;20028;-92
2022/12/30 10:15:17;;;;;;;6.90;1.73;;;;;;;7.49;77.81;99098.81;5059473;28;20092;-92
2022/12/30 10:17:54;;;;;;;5.60;2.20;;;;;;;7.55;77.84;99073.34;5059907;28;20139;-93
2022/12/30 10:20:57;;;;;;;5.68;0.85;;;;;;;7.64;77.98;99067.44;5058703;28;20025;-93
2022/12/30 10:23:54;;;;;;;3.13;1.05;;;;;;;7.66;77.45;99051.72;5056773;28;20197;-90
2022/12/30 10:26:28;;;;;;;2.78;0.70;;;;;;;7.69;77.11;99048.47;5057447;28;20032;-90
2022/12/30 10:29:00;;;;;;;2.93;0.90;;;;;;;7.71;77.01;99047.13;5054357;28;20037;-90
2022/12/30 10:31:29;;;;;;;5.03;2.00;;;;;;;7.80;76.36;99054.75;5059238;28;20020;-91
2022/12/30 10:34:02;;;;;;;4.63;1.05;;;;;;;7.77;76.75;99044.44;5058591;28;20127;-90
2022/12/30 10:36:33;;;;;;;3.65;0.90;;;;;;;7.90;76.09;99032.28;5058234;28;20112;-91
2022/12/30 10:39:11;;;;;;;5.28;1.30;;;;;;;8.02;76.00;99029.34;5060096;28;20651;-90
2022/12/30 10:41:51;;;;;;;4.07;1.13;;;;;;;7.96;75.27;99019.53;5059232;28;20029;-90
2022/12/30 10:45:04;;;;;;;10.13;1.27;;;;;;;7.97;74.93;99021.19;5042596;28;20025;-90
2022/12/30 10:47:48;;;;;;;7.25;1.27;;;;;;;8.00;75.16;99016.03;5033266;28;20115;-90
2022/12/30 10:50:22;;;;;;;2.33;0.65;;;;;;;8.06;74.17;99004.13;5058772;28;20584;-90
2022/12/30 10:52:47;;;;;;;3.70;1.45;;;;;;;8.11;74.41;99022.34;5058467;28;20039;-90
2022/12/30 10:55:23;;;;;;;2.50;1.02;;;;;;;8.21;74.49;99005.25;5059417;28;20045;-90
2022/12/30 10:57:55;;;;;;;3.05;0.93;;;;;;;8.29;74.54;99012.06;5058830;28;20456;-90
2022/12/30 11:00:21;;;;;;;2.90;0.93;;;;;;;8.32;73.97;99024.28;5059865;28;20154;-92
2022/12/30 11:02:56;;;;;;;5.57;1.65;;;;;;;8.25;73.52;99002.81;5058133;28;20119;-90
2022/12/30 11:05:34;;;;;;;6.22;2.95;;;;;;;8.25;73.54;98987.34;5058836;28;20037;-91
2022/12/30 11:08:04;;;;;;;5.07;1.25;;;;;;;8.18;73.72;98984.03;5051501;28;20041;-91
2022/12/30 11:10:30;;;;;;;4.30;1.63;;;;;;;8.24;73.42;98982.97;5058904;28;20033;-91
2022/12/30 11:15:54;;;;;;;5.05;1.58;;;;;;;8.18;73.53;98971.28;5057489;28;20149;-92
2022/12/30 11:18:25;;;;;;;5.72;1.55;;;;;;;8.17;73.22;98960.72;5057923;28;20036;-90
2022/12/30 11:20:54;;;;;;;3.15;1.42;;;;;;;8.23;73.94;98947.94;5059085;28;20048;-91
2022/12/30 11:23:30;;;;;;;3.50;0.95;;;;;;;8.10;73.75;98943.84;5059254;28;20067;-90
2022/12/30 11:25:57;;;;;;;10.15;2.10;;;;;;;8.09;74.30;98942.22;5056398;28;20071;-90
2022/12/30 11:28:50;;;;;;;3.75;1.02;;;;;;;8.19;74.19;98947.69;5060050;28;20028;-90
2022/12/30 11:31:17;;;;;;;2.63;1.02;;;;;;;8.20;74.39;98935.72;5050868;28;20322;-90
2022/12/30 11:33:48;;;;;;;4.85;1.30;;;;;;;8.21;74.05;98933.81;5059351;28;20078;-90
2022/12/30 11:36:30;;;;;;;8.38;2.15;;;;;;;8.16;74.21;98912.91;5056588;28;20043;-92
2022/12/30 11:39:09;;;;;;;3.05;0.98;;;;;;;8.12;74.33;98933.53;5060942;28;20024;-90
2022/12/30 11:41:46;;;;;;;4.60;1.10;;;;;;;8.12;74.33;98915.34;5063182;28;20024;-90
2022/12/30 11:44:14;;;;;;;2.72;1.30;;;;;;;8.17;74.42;98911.84;5059882;28;20036;-90
2022/12/30 11:46:43;;;;;;;4.97;1.52;;;;;;;8.10;74.08;98901.22;5061158;28;20025;-91
2022/12/30 11:49:29;;;;;;;3.75;1.23;;;;;;;8.13;74.53;98881.69;5062382;28;20084;-90
2022/12/30 11:52:07;;;;;;;13.57;1.90;;;;;;;8.02;74.58;98872.72;5061888;28;20055;-90
2022/12/30 11:54:38;;;;;;;1.52;0.73;;;;;;;7.93;74.75;98869.69;5060091;28;20049;-90
2022/12/30 11:57:06;;;;;;;5.75;1.48;;;;;;;7.90;74.95;98862.13;5059871;28;20123;-90
2022/12/30 11:59:36;;;;;;;4.90;1.42;;;;;;;7.88;75.22;98863.47;5061242;28;20024;-90
2022/12/30 12:02:35;;;;;;;6.22;1.20;;;;;;;7.92;74.64;98861.84;5059531;28;20032;-90
2022/12/30 12:05:01;;;;;;;3.42;1.35;;;;;;;7.93;74.97;98863.47;5060494;28;20041;-91
2022/12/30 12:07:45;;;;;;;5.10;1.73;;;;;;;7.91;74.76;98852.06;5059252;28;20043;-90
2022/12/30 12:10:28;;;;;;;5.00;1.58;;;;;;;7.96;75.30;98838.50;5060621;28;20079;-90
2022/12/30 12:12:57;;;;;;;4.00;1.15;;;;;;;8.00;75.39;98830.63;5062073;28;20442;-90
2022/12/30 12:15:34;;;;;;;3.10;0.98;;;;;;;7.99;74.70;98816.25;5058918;28;20037;-89
2022/12/30 12:18:21;;;;;;;3.95;1.30;;;;;;;7.96;75.33;98800.50;5059577;28;20036;-91
2022/12/30 12:20:46;;;;;;;5.10;0.98;;;;;;;7.93;75.22;98793.69;5061114;28;20040;-90
2022/12/30 12:23:41;;;;;;;2.30;1.00;;;;;;;7.91;75.66;98774.16;5060904;28;20033;-90
2022/12/30 12:26:14;;;;;;;3.10;1.35;;;;;;;7.91;75.25;98778.81;5060347;28;20414;-90
2022/12/30 12:28:42;;;;;;;6.03;2.17;;;;;;;7.90;75.16;98758.16;5061792;28;20119;-90
2022/12/30 12:31:34;;;;;;;2.45;1.05;;;;;;;7.89;75.45;98745.69;5057794;28;20089;-90
2022/12/30 12:34:26;;;;;;;5.25;1.80;;;;;;;7.89;75.82;98740.25;5060036;28;20059;-89
2022/12/30 12:37:22;;;;;;;31.52;2.63;;;;;;;7.85;75.46;98720.19;5060011;28;20040;-90
2022/12/30 12:40:12;;;;;;;4.63;0.95;;;;;;;7.86;75.73;98691.94;5061193;28;20098;-90
2022/12/30 12:42:52;;;;;;;9.35;2.47;;;;;;;7.93;75.89;98695.19;5062153;28;20025;-89
2022/12/30 12:45:42;;;;;;;6.57;1.13;;;;;;;7.97;75.77;98674.56;5061494;28;20032;-90
2022/12/30 12:48:44;;;;;;;14.38;1.92;;;;;;;7.97;75.02;98684.59;5059881;28;20040;-90
2022/12/30 12:51:36;;;;;;;6.47;2.17;;;;;;;7.99;75.90;98672.41;5059450;28;20031;-90